Time;durP1;ratioP1;P1;durP2;ratioP2;P2;SDS_P1;SDS_P2;PMS_P1;PMS_P2;Temp;Humidity;BMP_temperature;BMP_pressure;BME280_temperature;BME280_humidity;BME280_pressure;Samples;Min_cycle;Max_cycle;Signal;HPM_P1;HPM_P2
2022/04/24 00:01:03;;;;;;;2.43;2.43;;;19.50;63.00;;;;;;5128498;27;43968;-71
2022/04/24 00:03:32;;;;;;;2.63;2.63;;;19.50;62.60;;;;;;5128511;27;44341;-71
2022/04/24 00:06:00;;;;;;;2.50;2.50;;;19.50;62.70;;;;;;5128934;27;43942;-71
2022/04/24 00:08:29;;;;;;;2.50;2.50;;;19.40;62.60;;;;;;5128680;27;44050;-71
2022/04/24 00:10:57;;;;;;;2.60;2.60;;;19.30;62.80;;;;;;5128713;27;43960;-71
2022/04/24 00:13:25;;;;;;;2.40;2.40;;;19.20;63.00;;;;;;5127865;27;43989;-71
2022/04/24 00:15:53;;;;;;;2.40;2.40;;;19.20;63.30;;;;;;5128512;27;44037;-71
2022/04/24 00:18:21;;;;;;;2.50;2.50;;;19.10;63.40;;;;;;5126821;27;43579;-70
2022/04/24 00:20:49;;;;;;;2.80;2.80;;;19.10;63.70;;;;;;5128433;27;45086;-71
2022/04/24 00:23:17;;;;;;;2.43;2.43;;;19.00;63.70;;;;;;5127458;27;43936;-71
2022/04/24 00:25:46;;;;;;;2.60;2.60;;;19.00;64.20;;;;;;5127502;27;44403;-71
2022/04/24 00:28:14;;;;;;;2.40;2.40;;;19.00;64.20;;;;;;5128225;27;43994;-71
2022/04/24 00:30:42;;;;;;;2.30;2.30;;;19.20;64.00;;;;;;5128316;27;43932;-71
2022/04/24 00:33:10;;;;;;;2.63;2.63;;;19.30;63.60;;;;;;5127515;27;43899;-71
2022/04/24 00:35:38;;;;;;;2.40;2.40;;;19.30;63.40;;;;;;5128119;27;44357;-71
2022/04/24 00:38:06;;;;;;;2.50;2.50;;;19.30;63.20;;;;;;5128534;27;44086;-71
2022/04/24 00:40:34;;;;;;;2.37;2.37;;;19.20;63.10;;;;;;5128297;27;43609;-71
2022/04/24 00:43:03;;;;;;;2.63;2.60;;;19.20;63.30;;;;;;5127591;27;44040;-70
2022/04/24 00:45:51;;;;;;;2.43;2.43;;;19.10;63.40;;;;;;5127718;27;44034;-71
2022/04/24 00:48:19;;;;;;;2.60;2.60;;;19.00;63.60;;;;;;5127929;27;43997;-71
2022/04/24 00:51:08;;;;;;;2.20;2.20;;;19.00;63.80;;;;;;5127397;27;45009;-70
2022/04/24 00:53:36;;;;;;;2.20;2.20;;;19.00;63.90;;;;;;5127632;27;44000;-71
2022/04/24 00:56:05;;;;;;;2.30;2.30;;;18.90;64.00;;;;;;5127831;27;43943;-71
2022/04/24 00:58:35;;;;;;;2.70;2.70;;;18.90;64.00;;;;;;5128507;27;43993;-70
2022/04/24 01:01:03;;;;;;;2.30;2.30;;;18.90;64.40;;;;;;5128201;27;45004;-70
2022/04/24 01:03:31;;;;;;;2.30;2.20;;;19.00;64.20;;;;;;5127362;27;43803;-71
2022/04/24 01:05:59;;;;;;;2.43;2.43;;;19.20;64.00;;;;;;5127369;27;43687;-70
2022/04/24 01:08:26;;;;;;;2.40;2.40;;;19.40;63.50;;;;;;5127828;27;43986;-70
2022/04/24 01:10:54;;;;;;;2.10;2.10;;;19.60;62.90;;;;;;5127610;27;44818;-70
2022/04/24 01:13:22;;;;;;;2.40;2.40;;;19.70;62.50;;;;;;5127119;27;43999;-70
2022/04/24 01:15:52;;;;;;;2.30;2.30;;;19.60;62.30;;;;;;5127517;27;44016;-70
2022/04/24 01:18:20;;;;;;;2.57;2.57;;;19.60;62.40;;;;;;5127149;27;43891;-70
2022/04/24 01:20:49;;;;;;;2.33;2.33;;;19.50;62.60;;;;;;5127245;27;44131;-70
2022/04/24 01:23:17;;;;;;;2.43;2.43;;;19.40;62.80;;;;;;5125103;27;44517;-70
2022/04/24 01:25:45;;;;;;;2.50;2.50;;;19.30;63.00;;;;;;5127617;27;43952;-70
2022/04/24 01:28:13;;;;;;;2.40;2.30;;;19.20;63.20;;;;;;5127462;27;44482;-70
2022/04/24 01:30:41;;;;;;;2.57;2.57;;;19.10;63.40;;;;;;5125724;27;46908;-70
2022/04/24 01:33:09;;;;;;;2.60;2.60;;;19.10;63.60;;;;;;5126283;27;44103;-70
2022/04/24 01:35:37;;;;;;;2.60;2.60;;;19.10;64.20;;;;;;5127232;27;44021;-71
2022/04/24 01:38:06;;;;;;;2.20;2.20;;;19.10;64.20;;;;;;5125992;27;43836;-71
2022/04/24 01:40:34;;;;;;;2.67;2.57;;;19.30;63.80;;;;;;5125713;27;46054;-70
2022/04/24 01:43:02;;;;;;;2.37;2.37;;;19.40;63.40;;;;;;5125665;27;44744;-70
2022/04/24 01:45:30;;;;;;;2.20;2.20;;;19.40;63.10;;;;;;5125617;27;43867;-70
2022/04/24 01:47:58;;;;;;;2.50;2.50;;;19.30;63.10;;;;;;5125939;27;44038;-70
2022/04/24 01:50:26;;;;;;;2.40;2.40;;;19.30;63.20;;;;;;5126319;27;43866;-70
2022/04/24 01:52:56;;;;;;;2.07;2.07;;;19.20;63.30;;;;;;5127143;27;44073;-69
2022/04/24 01:55:26;;;;;;;2.47;2.47;;;19.10;63.50;;;;;;5126596;27;43919;-71
2022/04/24 01:57:54;;;;;;;2.30;2.30;;;19.10;63.70;;;;;;5126930;27;43980;-71
2022/04/24 02:00:22;;;;;;;2.30;2.30;;;19.00;63.80;;;;;;5124959;27;46071;-71
2022/04/24 02:02:50;;;;;;;2.50;2.40;;;19.00;63.90;;;;;;5125041;27;44754;-70
2022/04/24 02:05:18;;;;;;;2.40;2.40;;;19.00;64.00;;;;;;5126364;27;43738;-71
2022/04/24 02:07:46;;;;;;;2.40;2.40;;;18.90;64.30;;;;;;5127266;27;44049;-70
2022/04/24 02:10:15;;;;;;;2.43;2.33;;;19.00;64.50;;;;;;5126360;27;43920;-70
2022/04/24 02:12:44;;;;;;;2.27;2.27;;;19.10;64.20;;;;;;5126794;27;44047;-71
2022/04/24 02:15:12;;;;;;;2.37;2.37;;;19.30;63.80;;;;;;5125703;27;43387;-70
2022/04/24 02:17:40;;;;;;;2.40;2.40;;;19.50;63.20;;;;;;5129757;27;43831;-70
2022/04/24 02:20:09;;;;;;;2.40;2.40;;;19.60;62.60;;;;;;5128033;27;45598;-71
2022/04/24 02:22:37;;;;;;;2.60;2.60;;;19.60;62.50;;;;;;5130323;27;44036;-71
2022/04/24 02:25:06;;;;;;;2.50;2.50;;;19.50;62.40;;;;;;5130271;27;43960;-70
2022/04/24 02:27:34;;;;;;;2.40;2.40;;;19.50;62.70;;;;;;5130010;27;44018;-70
2022/04/24 02:30:08;;;;;;;2.30;2.30;;;19.30;62.80;;;;;;5129999;27;44827;-70
2022/04/24 02:32:36;;;;;;;2.53;2.53;;;19.20;63.00;;;;;;5130370;27;43989;-70
2022/04/24 02:35:04;;;;;;;2.30;2.30;;;19.20;63.30;;;;;;5128346;27;43540;-70
2022/04/24 02:37:32;;;;;;;2.17;2.17;;;19.10;63.50;;;;;;5130684;27;43977;-70
2022/04/24 02:40:00;;;;;;;2.40;2.40;;;19.10;63.70;;;;;;5130249;27;43742;-70
2022/04/24 02:42:28;;;;;;;2.40;2.40;;;19.00;64.20;;;;;;5129751;27;43942;-71
2022/04/24 02:44:56;;;;;;;2.30;2.30;;;19.10;64.30;;;;;;5128641;27;43794;-70
2022/04/24 02:47:25;;;;;;;2.70;2.70;;;19.20;63.80;;;;;;5129538;27;43560;-70
2022/04/24 02:49:53;;;;;;;2.37;2.37;;;19.30;63.40;;;;;;5130101;27;44003;-70
2022/04/24 02:52:21;;;;;;;2.50;2.50;;;19.30;63.20;;;;;;5129590;27;43957;-71
2022/04/24 02:54:50;;;;;;;2.30;2.30;;;19.30;63.20;;;;;;5129834;27;43325;-70
2022/04/24 02:57:18;;;;;;;2.60;2.60;;;19.20;63.20;;;;;;5129688;27;43912;-69
2022/04/24 02:59:48;;;;;;;2.30;2.30;;;19.10;63.40;;;;;;5129588;27;43724;-70
2022/04/24 03:02:17;;;;;;;2.37;2.37;;;19.10;63.70;;;;;;5128996;27;43959;-71
2022/04/24 03:04:46;;;;;;;2.50;2.50;;;19.00;63.80;;;;;;5129669;27;44021;-69
2022/04/24 03:07:14;;;;;;;2.50;2.50;;;19.00;64.00;;;;;;5129534;27;43532;-70
2022/04/24 03:09:42;;;;;;;2.47;2.47;;;18.90;64.00;;;;;;5127644;27;45705;-71
2022/04/24 03:12:10;;;;;;;2.40;2.40;;;18.90;64.40;;;;;;5129287;27;44190;-70
2022/04/24 03:14:39;;;;;;;2.33;2.33;;;18.90;64.40;;;;;;5127829;27;43485;-69
2022/04/24 03:17:07;;;;;;;2.40;2.40;;;18.90;64.60;;;;;;5129372;27;43897;-70
2022/04/24 03:19:35;;;;;;;2.43;2.43;;;19.10;64.50;;;;;;5129526;27;43859;-70
2022/04/24 03:22:05;;;;;;;2.43;2.43;;;19.20;63.90;;;;;;5129312;27;43955;-70
2022/04/24 03:24:33;;;;;;;2.30;2.30;;;19.50;63.50;;;;;;5129671;27;43946;-70
2022/04/24 03:27:01;;;;;;;2.30;2.30;;;19.60;62.90;;;;;;5129517;27;43863;-70
2022/04/24 03:29:29;;;;;;;2.40;2.40;;;19.60;62.70;;;;;;5127435;27;45862;-70
2022/04/24 03:31:57;;;;;;;2.30;2.30;;;19.50;62.70;;;;;;5127594;27;44800;-70
2022/04/24 03:34:25;;;;;;;2.43;2.43;;;19.40;62.80;;;;;;5126862;27;43923;-70
2022/04/24 03:36:52;;;;;;;2.63;2.63;;;19.30;63.70;;;;;;5129954;27;44036;-70
2022/04/24 03:39:22;;;;;;;2.17;2.17;;;19.20;63.20;;;;;;5128694;27;43966;-71
2022/04/24 03:41:50;;;;;;;2.40;2.40;;;19.10;63.50;;;;;;5129153;27;43935;-71
2022/04/24 03:44:17;;;;;;;2.30;2.30;;;19.10;63.80;;;;;;5128669;27;43963;-70
2022/04/24 03:46:45;;;;;;;2.47;2.47;;;19.00;63.90;;;;;;5127747;27;44069;-71
2022/04/24 03:49:13;;;;;;;2.33;2.33;;;18.90;64.00;;;;;;5126546;27;46755;-70
2022/04/24 03:51:41;;;;;;;2.20;2.20;;;18.90;64.60;;;;;;5128899;27;43388;-70
2022/04/24 03:54:09;;;;;;;2.17;2.17;;;19.00;64.50;;;;;;5128846;27;43960;-70
2022/04/24 03:56:38;;;;;;;2.23;2.23;;;19.10;64.00;;;;;;5129294;27;43894;-70
2022/04/24 03:59:06;;;;;;;2.33;2.33;;;19.20;63.70;;;;;;5126850;27;45797;-69
2022/04/24 04:01:34;;;;;;;2.47;2.47;;;19.20;63.40;;;;;;5128699;27;44145;-70
2022/04/24 04:04:02;;;;;;;2.40;2.40;;;19.20;63.50;;;;;;5128919;27;44015;-71
2022/04/24 04:06:30;;;;;;;2.37;2.37;;;19.10;63.60;;;;;;5128644;27;43849;-70
2022/04/24 04:08:58;;;;;;;2.10;2.10;;;19.00;63.80;;;;;;5127080;27;45328;-70
2022/04/24 04:11:28;;;;;;;2.43;2.43;;;19.00;64.00;;;;;;5127205;27;44742;-72
2022/04/24 04:13:57;;;;;;;2.30;2.30;;;18.90;64.00;;;;;;5128885;27;43895;-71
2022/04/24 04:16:25;;;;;;;2.37;2.37;;;18.90;64.20;;;;;;5128349;27;43969;-69
2022/04/24 04:18:54;;;;;;;2.50;2.50;;;18.90;64.30;;;;;;5128428;27;43699;-71
2022/04/24 04:21:22;;;;;;;2.30;2.30;;;18.90;64.40;;;;;;5121342;27;43936;-70
2022/04/24 04:23:49;;;;;;;2.33;2.30;;;18.80;64.50;;;;;;5121732;27;43959;-70
2022/04/24 04:26:17;;;;;;;2.30;2.30;;;18.90;64.70;;;;;;5121499;27;43913;-70
2022/04/24 04:28:45;;;;;;;2.23;2.23;;;19.00;64.50;;;;;;5121810;27;43934;-70
2022/04/24 04:31:15;;;;;;;2.30;2.30;;;19.20;64.10;;;;;;5119278;27;44729;-69
2022/04/24 04:33:43;;;;;;;2.37;2.37;;;19.40;63.50;;;;;;5121848;27;44051;-70
2022/04/24 04:36:11;;;;;;;2.30;2.30;;;19.50;62.90;;;;;;5119986;27;44038;-70
2022/04/24 04:38:39;;;;;;;2.13;2.13;;;19.60;62.80;;;;;;5119735;27;46154;-71
2022/04/24 04:41:07;;;;;;;2.60;2.60;;;19.50;62.70;;;;;;5127272;27;43465;-69
2022/04/24 04:43:34;;;;;;;2.50;2.50;;;19.40;62.70;;;;;;5128432;27;43818;-69
2022/04/24 04:46:02;;;;;;;2.33;2.33;;;19.30;62.90;;;;;;5128295;27;44246;-70
2022/04/24 04:48:32;;;;;;;2.40;2.40;;;19.20;63.20;;;;;;5128267;27;45023;-70
2022/04/24 04:51:00;;;;;;;2.20;2.20;;;19.10;63.40;;;;;;5128049;27;43944;-71
2022/04/24 04:53:28;;;;;;;2.30;2.30;;;19.10;63.70;;;;;;5127766;27;43894;-70
2022/04/24 04:55:56;;;;;;;2.17;2.17;;;19.00;63.80;;;;;;5128018;27;44100;-71
2022/04/24 04:58:24;;;;;;;2.40;2.40;;;19.00;64.40;;;;;;5125905;27;46875;-70
2022/04/24 05:00:52;;;;;;;2.47;2.47;;;19.00;64.40;;;;;;5126789;27;43988;-70
2022/04/24 05:03:19;;;;;;;2.53;2.53;;;19.20;64.30;;;;;;5126344;27;44342;-70
2022/04/24 05:05:49;;;;;;;2.20;2.20;;;19.40;63.70;;;;;;5127119;27;44083;-71
2022/04/24 05:08:17;;;;;;;2.43;2.43;;;19.50;63.10;;;;;;5126160;27;45937;-70
2022/04/24 05:10:45;;;;;;;2.40;2.40;;;19.50;62.90;;;;;;5128114;27;44043;-70
2022/04/24 05:13:13;;;;;;;2.37;2.37;;;19.40;62.80;;;;;;5127581;27;44125;-70
2022/04/24 05:15:40;;;;;;;2.50;2.50;;;19.30;63.70;;;;;;5127039;27;43847;-69
2022/04/24 05:18:08;;;;;;;2.37;2.37;;;19.20;63.20;;;;;;5127779;27;43954;-70
2022/04/24 05:20:36;;;;;;;2.47;2.47;;;19.20;63.60;;;;;;5128210;27;44047;-70
2022/04/24 05:23:06;;;;;;;2.43;2.43;;;19.10;63.80;;;;;;5128162;27;43428;-71
2022/04/24 05:25:34;;;;;;;2.10;2.10;;;19.00;63.90;;;;;;5128753;27;43994;-70
2022/04/24 05:28:02;;;;;;;2.20;2.20;;;19.00;64.20;;;;;;5127921;27;43932;-71
2022/04/24 05:30:30;;;;;;;2.33;2.33;;;18.90;64.30;;;;;;5127674;27;43883;-70
2022/04/24 05:32:59;;;;;;;2.30;2.30;;;18.90;64.80;;;;;;5128128;27;43740;-70
2022/04/24 05:35:27;;;;;;;2.57;2.57;;;19.00;64.80;;;;;;5125823;27;44173;-70
2022/04/24 05:37:55;;;;;;;2.40;2.40;;;19.20;64.50;;;;;;5126275;27;45791;-70
2022/04/24 05:40:24;;;;;;;2.17;2.17;;;19.30;63.80;;;;;;5127564;27;43353;-70
2022/04/24 05:42:53;;;;;;;2.33;2.33;;;19.50;63.30;;;;;;5126275;27;43855;-71
2022/04/24 05:45:22;;;;;;;2.50;2.50;;;19.50;63.00;;;;;;5127459;27;43934;-71
2022/04/24 05:47:50;;;;;;;2.40;2.40;;;19.40;63.00;;;;;;5125728;27;44587;-71
2022/04/24 05:50:18;;;;;;;2.40;2.40;;;19.30;63.10;;;;;;5127922;27;43418;-70
2022/04/24 05:52:46;;;;;;;2.20;2.20;;;19.20;63.20;;;;;;5131241;27;43761;-70
2022/04/24 05:55:14;;;;;;;2.20;2.20;;;19.10;63.40;;;;;;5131721;27;43954;-70
2022/04/24 05:57:43;;;;;;;2.47;2.47;;;19.10;63.80;;;;;;5129558;27;45742;-71
2022/04/24 06:00:12;;;;;;;2.30;2.30;;;19.00;63.90;;;;;;5130470;27;43951;-70
2022/04/24 06:02:40;;;;;;;2.43;2.43;;;19.00;64.20;;;;;;5129719;27;44020;-70
2022/04/24 06:05:10;;;;;;;2.40;2.40;;;18.90;64.20;;;;;;5131348;27;44004;-70
2022/04/24 06:07:38;;;;;;;2.40;2.40;;;18.90;64.70;;;;;;5131387;27;43754;-69
2022/04/24 06:10:07;;;;;;;2.20;2.20;;;19.00;64.60;;;;;;5129392;27;44474;-70
2022/04/24 06:12:46;;;;;;;2.60;2.60;;;19.20;64.20;;;;;;5131400;27;43349;-70
2022/04/24 06:15:15;;;;;;;2.40;2.40;;;19.30;63.80;;;;;;5130558;27;43811;-70
2022/04/24 06:17:43;;;;;;;2.47;2.47;;;19.20;63.70;;;;;;5130728;27;43835;-70
2022/04/24 06:20:13;;;;;;;2.20;2.20;;;19.20;63.50;;;;;;5130587;27;43875;-70
2022/04/24 06:22:44;;;;;;;2.63;2.53;;;19.10;63.60;;;;;;5131193;27;43399;-71
2022/04/24 06:25:15;;;;;;;2.40;2.40;;;19.10;63.90;;;;;;5129143;27;44034;-72
2022/04/24 06:27:47;;;;;;;2.50;2.50;;;19.00;64.00;;;;;;5129369;27;46125;-69
2022/04/24 06:30:15;;;;;;;2.43;2.37;;;18.90;64.10;;;;;;5128809;27;44741;-71
2022/04/24 06:32:43;;;;;;;2.33;2.33;;;18.90;64.30;;;;;;5130508;27;43968;-70
2022/04/24 06:35:13;;;;;;;2.30;2.30;;;18.90;64.30;;;;;;5130476;27;43487;-71
2022/04/24 06:37:41;;;;;;;2.50;2.50;;;18.90;64.50;;;;;;5129004;27;46894;-70
2022/04/24 06:40:13;;;;;;;2.30;2.30;;;18.80;64.50;;;;;;5128824;27;45154;-71
2022/04/24 06:42:50;;;;;;;2.23;2.23;;;18.90;64.90;;;;;;5130706;27;44020;-70
2022/04/24 06:45:20;;;;;;;2.10;2.10;;;19.00;64.50;;;;;;5130622;27;43440;-70
2022/04/24 06:47:48;;;;;;;2.13;2.13;;;19.20;64.20;;;;;;5128922;27;45452;-70
2022/04/24 06:50:16;;;;;;;2.20;2.20;;;19.40;64.30;;;;;;5130096;27;43499;-69
2022/04/24 06:52:44;;;;;;;2.50;2.50;;;19.60;63.10;;;;;;5130495;27;43386;-70
2022/04/24 06:55:12;;;;;;;2.33;2.33;;;19.60;62.70;;;;;;5129071;27;43521;-70
2022/04/24 06:57:40;;;;;;;2.03;2.03;;;19.50;62.70;;;;;;5130174;27;45143;-71
2022/04/24 07:00:11;;;;;;;2.20;2.20;;;19.50;62.80;;;;;;5129788;27;43430;-71
2022/04/24 07:02:40;;;;;;;2.20;2.20;;;19.30;62.90;;;;;;5129623;27;43827;-71
2022/04/24 07:05:09;;;;;;;2.10;2.10;;;19.30;63.20;;;;;;5128687;27;43908;-70
2022/04/24 07:07:37;;;;;;;2.27;2.27;;;19.20;63.40;;;;;;5128390;27;44425;-70
2022/04/24 07:10:05;;;;;;;2.33;2.33;;;19.10;63.70;;;;;;5130044;27;43441;-69
2022/04/24 07:12:33;;;;;;;2.20;2.20;;;19.10;63.90;;;;;;5128710;27;44072;-70
2022/04/24 07:15:01;;;;;;;2.23;2.23;;;19.00;64.30;;;;;;5127320;27;43930;-69
2022/04/24 07:17:30;;;;;;;2.10;2.10;;;19.00;64.50;;;;;;5128052;27;45859;-70
2022/04/24 07:19:58;;;;;;;2.30;2.30;;;19.20;64.30;;;;;;5129969;27;43946;-70
2022/04/24 07:22:26;;;;;;;2.33;2.33;;;19.20;63.70;;;;;;5129961;27;44043;-70
2022/04/24 07:24:54;;;;;;;2.60;2.60;;;19.30;63.50;;;;;;5130377;27;43956;-71
2022/04/24 07:27:22;;;;;;;2.33;2.33;;;19.20;63.30;;;;;;5129255;27;44060;-70
2022/04/24 07:29:50;;;;;;;2.10;2.10;;;19.20;63.50;;;;;;5128426;27;43964;-71
2022/04/24 07:32:18;;;;;;;2.20;2.20;;;19.10;63.60;;;;;;5128118;27;44083;-70
2022/04/24 07:34:48;;;;;;;2.20;2.20;;;19.10;63.80;;;;;;5128233;27;43982;-70
2022/04/24 07:37:17;;;;;;;2.20;2.20;;;19.00;64.00;;;;;;5127843;27;45493;-70
2022/04/24 07:39:44;;;;;;;2.20;2.20;;;19.00;64.90;;;;;;5129473;27;44382;-70
2022/04/24 07:42:12;;;;;;;2.17;2.17;;;18.90;64.30;;;;;;5128167;27;44107;-70
2022/04/24 07:44:40;;;;;;;1.87;1.87;;;18.90;64.40;;;;;;5128388;27;43958;-70
2022/04/24 07:47:09;;;;;;;2.30;2.30;;;18.80;64.40;;;;;;5128894;27;44889;-70
2022/04/24 07:49:37;;;;;;;2.33;2.33;;;18.80;64.80;;;;;;5129864;27;44004;-71
2022/04/24 07:52:06;;;;;;;2.30;2.30;;;18.90;64.80;;;;;;5129943;27;44225;-70
2022/04/24 07:54:34;;;;;;;2.20;2.20;;;19.10;64.50;;;;;;5130495;27;43920;-70
2022/04/24 07:57:03;;;;;;;2.23;2.23;;;19.30;64.00;;;;;;5129383;27;45166;-71
2022/04/24 07:59:31;;;;;;;2.00;2.00;;;19.40;63.40;;;;;;5129504;27;43393;-70
2022/04/24 08:01:59;;;;;;;2.10;2.10;;;19.50;62.90;;;;;;5127717;27;43874;-70
2022/04/24 08:04:30;;;;;;;2.00;2.00;;;19.50;62.80;;;;;;5129934;27;43830;-70
2022/04/24 08:06:58;;;;;;;1.97;1.97;;;19.50;62.90;;;;;;5129148;27;43926;-71
2022/04/24 08:09:27;;;;;;;2.00;2.00;;;19.30;63.00;;;;;;5127463;27;44347;-70
2022/04/24 08:11:55;;;;;;;2.10;2.10;;;19.20;63.20;;;;;;5129539;27;43408;-70
2022/04/24 08:14:23;;;;;;;2.03;2.03;;;19.10;63.50;;;;;;5128113;27;43926;-71
2022/04/24 08:16:51;;;;;;;2.30;2.30;;;19.10;63.80;;;;;;5128806;27;43611;-70
2022/04/24 08:19:21;;;;;;;2.30;2.30;;;19.00;63.90;;;;;;5128732;27;44043;-70
2022/04/24 08:21:49;;;;;;;2.20;2.20;;;18.90;64.20;;;;;;5129149;27;44020;-71
2022/04/24 08:24:16;;;;;;;2.20;2.20;;;18.90;64.50;;;;;;5129266;27;43937;-71
2022/04/24 08:26:46;;;;;;;2.13;2.13;;;19.10;64.50;;;;;;5128628;27;44044;-70
2022/04/24 08:29:14;;;;;;;2.10;2.10;;;19.20;64.00;;;;;;5128641;27;43468;-70
2022/04/24 08:31:41;;;;;;;2.20;2.20;;;19.20;63.70;;;;;;5129222;27;43365;-71
2022/04/24 08:34:10;;;;;;;2.10;2.10;;;19.20;63.60;;;;;;5128380;27;44032;-70
2022/04/24 08:36:38;;;;;;;1.97;1.97;;;19.10;63.60;;;;;;5128721;27;44989;-70
2022/04/24 08:39:05;;;;;;;2.13;2.13;;;19.10;63.80;;;;;;5128588;27;43934;-69
2022/04/24 08:41:33;;;;;;;2.10;2.10;;;19.00;64.00;;;;;;5128881;27;44022;-71
2022/04/24 08:44:03;;;;;;;1.90;1.90;;;18.90;64.10;;;;;;5127550;27;44100;-70
2022/04/24 08:46:31;;;;;;;2.10;2.10;;;18.90;64.30;;;;;;5126875;27;46104;-70
2022/04/24 08:48:59;;;;;;;2.30;2.27;;;18.90;64.40;;;;;;5128205;27;44089;-70
2022/04/24 08:51:27;;;;;;;2.10;2.10;;;18.80;64.40;;;;;;5128619;27;43902;-70
2022/04/24 08:53:55;;;;;;;1.93;1.93;;;18.80;64.60;;;;;;5129198;27;43828;-71
2022/04/24 08:56:26;;;;;;;2.00;2.00;;;18.80;65.00;;;;;;5127795;27;45115;-71
2022/04/24 08:58:56;;;;;;;2.13;2.13;;;18.90;65.00;;;;;;5128544;27;44058;-69
2022/04/24 09:01:26;;;;;;;2.00;2.00;;;19.10;64.60;;;;;;5126809;27;43938;-70
2022/04/24 09:03:54;;;;;;;2.30;2.20;;;19.30;64.00;;;;;;5128881;27;43985;-71
2022/04/24 09:06:23;;;;;;;1.97;1.87;;;19.40;63.30;;;;;;5127946;27;44917;-71
2022/04/24 09:08:51;;;;;;;2.00;2.00;;;19.50;62.80;;;;;;5126459;27;44737;-71
2022/04/24 09:11:26;;;;;;;2.50;2.30;;;19.50;62.50;;;;;;5126299;27;44169;-71
2022/04/24 09:16:47;;;;;;;2.10;2.10;;;19.20;62.70;;;;;;5127692;27;43957;-70
2022/04/24 09:19:19;;;;;;;2.30;2.20;;;19.10;62.90;;;;;;5127658;27;44072;-71
2022/04/24 09:21:48;;;;;;;2.43;2.23;;;19.10;63.20;;;;;;5128291;27;43367;-71
2022/04/24 09:24:16;;;;;;;4.00;2.30;;;19.00;63.40;;;;;;5128261;27;43925;-72
2022/04/24 09:26:51;;;;;;;2.93;2.40;;;18.90;63.60;;;;;;5127559;27;44041;-71
2022/04/24 09:29:21;;;;;;;5.40;2.40;;;18.90;63.80;;;;;;5127629;27;44014;-70
2022/04/24 09:31:51;;;;;;;6.03;2.53;;;18.90;64.10;;;;;;5127903;27;43967;-71
2022/04/24 09:34:20;;;;;;;8.60;2.50;;;18.90;64.00;;;;;;5127952;27;43338;-70
2022/04/24 09:37:00;;;;;;;3.13;2.50;;;19.10;63.70;;;;;;5126376;27;44031;-71
2022/04/24 09:39:28;;;;;;;2.87;2.13;;;19.20;63.00;;;;;;5127734;27;43917;-70
2022/04/24 09:42:04;;;;;;;2.90;2.60;;;19.30;62.90;;;;;;5127777;27;44060;-70
2022/04/24 09:44:42;;;;;;;2.60;2.47;;;19.20;62.80;;;;;;5126879;27;44097;-70
2022/04/24 09:47:32;;;;;;;3.17;2.50;;;19.10;62.80;;;;;;5128006;27;44032;-71
2022/04/24 09:50:01;;;;;;;2.33;2.23;;;19.10;63.10;;;;;;5127924;27;44013;-71
2022/04/24 09:52:29;;;;;;;3.10;2.50;;;19.00;63.30;;;;;;5112713;27;43500;-70
2022/04/24 09:54:57;;;;;;;2.60;2.53;;;18.90;63.40;;;;;;5128000;27;43903;-70
2022/04/24 09:57:25;;;;;;;5.07;2.30;;;18.90;63.50;;;;;;5121025;27;44028;-70
2022/04/24 09:59:53;;;;;;;3.10;2.30;;;18.90;63.70;;;;;;5120842;27;43965;-71
2022/04/24 10:02:21;;;;;;;2.43;2.33;;;18.80;63.70;;;;;;5125808;27;43887;-71
2022/04/24 10:04:53;;;;;;;3.67;2.30;;;18.80;63.90;;;;;;5126159;27;43750;-71
2022/04/24 10:07:21;;;;;;;2.67;2.43;;;18.80;64.10;;;;;;5127195;27;45177;-70
2022/04/24 10:09:49;;;;;;;3.27;2.57;;;19.00;64.00;;;;;;5125596;27;44705;-70
2022/04/24 10:12:18;;;;;;;2.43;2.37;;;19.20;63.50;;;;;;5127359;27;44061;-70
2022/04/24 10:14:47;;;;;;;2.40;2.40;;;19.40;62.90;;;;;;5127671;27;43995;-71
2022/04/24 10:17:51;;;;;;;3.53;2.40;;;19.50;62.30;;;;;;5126884;27;43788;-70
2022/04/24 10:20:44;;;;;;;2.83;2.63;;;19.50;62.00;;;;;;5090070;27;44079;-70
2022/04/24 10:23:12;;;;;;;2.20;2.17;;;19.40;62.10;;;;;;5100913;27;43908;-71
2022/04/24 10:25:41;;;;;;;3.40;2.50;;;19.30;62.40;;;;;;5127591;27;43456;-71
2022/04/24 10:28:10;;;;;;;2.43;2.33;;;19.20;62.60;;;;;;5126557;27;43934;-71
2022/04/24 10:30:38;;;;;;;2.47;2.37;;;19.10;62.90;;;;;;5127279;27;43934;-71
2022/04/24 10:33:18;;;;;;;2.43;2.30;;;19.10;63.30;;;;;;5127200;27;43903;-71
2022/04/24 10:35:49;;;;;;;2.30;2.30;;;19.00;63.50;;;;;;5127819;27;43322;-71
2022/04/24 10:38:17;;;;;;;2.50;2.20;;;18.90;63.60;;;;;;5126871;27;45616;-71
2022/04/24 10:40:57;;;;;;;2.57;2.40;;;18.90;64.00;;;;;;5130937;27;44000;-70
2022/04/24 10:43:25;;;;;;;2.47;2.40;;;19.00;64.00;;;;;;5130726;27;43910;-71
2022/04/24 10:45:53;;;;;;;2.30;2.20;;;19.10;63.50;;;;;;5124549;27;43979;-70
2022/04/24 10:48:21;;;;;;;2.53;2.47;;;19.30;63.20;;;;;;5123809;27;43929;-70
2022/04/24 10:50:52;;;;;;;2.77;2.63;;;19.30;63.00;;;;;;5124141;27;44119;-71
2022/04/24 10:53:20;;;;;;;3.20;3.00;;;19.20;62.90;;;;;;5124270;27;43719;-71
2022/04/24 10:55:48;;;;;;;3.00;2.80;;;19.20;63.10;;;;;;5130609;27;43960;-71
2022/04/24 10:58:25;;;;;;;2.30;2.30;;;19.10;63.30;;;;;;5129931;27;44039;-71
2022/04/24 11:00:53;;;;;;;2.30;2.20;;;19.00;63.50;;;;;;5130222;27;44070;-70
2022/04/24 11:03:21;;;;;;;2.83;2.30;;;19.00;63.80;;;;;;5128533;27;43791;-70
2022/04/24 11:05:52;;;;;;;2.77;2.50;;;18.90;64.00;;;;;;5130959;27;43984;-71
2022/04/24 11:08:21;;;;;;;2.47;2.33;;;18.90;64.90;;;;;;5129859;27;44808;-71
2022/04/24 11:10:50;;;;;;;2.27;2.20;;;18.80;64.20;;;;;;5130180;27;43938;-71
2022/04/24 11:13:18;;;;;;;2.80;2.70;;;18.80;64.30;;;;;;5130260;27;44097;-71
2022/04/24 11:15:48;;;;;;;2.53;2.33;;;18.80;64.60;;;;;;5130122;27;44064;-70
2022/04/24 11:18:23;;;;;;;2.13;2.13;;;18.90;64.50;;;;;;5129481;27;45005;-72
2022/04/24 11:20:56;;;;;;;2.50;2.30;;;19.10;64.10;;;;;;5129985;27;43405;-70
2022/04/24 11:23:28;;;;;;;2.40;2.30;;;19.30;63.40;;;;;;5128361;27;43907;-71
2022/04/24 11:25:56;;;;;;;2.30;2.20;;;19.50;62.90;;;;;;5130378;27;43951;-71
2022/04/24 11:28:34;;;;;;;2.67;2.47;;;19.60;62.50;;;;;;5129650;27;43927;-71
2022/04/24 11:31:13;;;;;;;2.30;2.20;;;19.50;62.20;;;;;;5129615;27;43436;-71
2022/04/24 11:33:51;;;;;;;2.27;2.27;;;19.40;62.40;;;;;;5129762;27;43934;-70
2022/04/24 11:36:21;;;;;;;2.47;2.37;;;19.30;62.60;;;;;;5129482;27;43953;-71
2022/04/24 11:38:50;;;;;;;2.37;2.17;;;19.20;63.70;;;;;;5129485;27;43995;-70
2022/04/24 11:41:19;;;;;;;2.80;2.70;;;19.10;63.30;;;;;;5129267;27;43876;-71
2022/04/24 11:43:49;;;;;;;2.33;2.30;;;19.00;63.50;;;;;;5129909;27;43927;-71
2022/04/24 11:51:53;;;;;;;2.60;2.40;;;18.90;64.30;;;;;;5129422;27;43912;-70
2022/04/24 11:54:21;;;;;;;2.60;2.50;;;19.10;64.10;;;;;;5129644;27;44033;-70
2022/04/24 11:56:52;;;;;;;2.90;2.80;;;19.30;63.50;;;;;;5130081;27;43318;-70
2022/04/24 11:59:22;;;;;;;2.67;2.57;;;19.40;63.00;;;;;;5129004;27;44241;-70
2022/04/24 12:01:56;;;;;;;12.50;2.63;;;19.40;62.80;;;;;;5129305;27;43971;-71
2022/04/24 12:04:26;;;;;;;3.40;2.40;;;19.30;62.80;;;;;;5129274;27;43888;-71
2022/04/24 12:07:02;;;;;;;3.67;2.60;;;19.20;63.10;;;;;;5129843;27;43947;-71
2022/04/24 12:09:30;;;;;;;3.00;2.57;;;19.10;63.40;;;;;;5128858;27;43889;-70
2022/04/24 12:12:05;;;;;;;6.63;2.50;;;19.00;63.80;;;;;;5128980;27;43864;-71
2022/04/24 12:14:34;;;;;;;2.93;2.73;;;19.00;64.20;;;;;;5129081;27;43901;-71
2022/04/24 12:17:03;;;;;;;8.73;2.73;;;18.90;64.30;;;;;;5129676;27;43946;-70
2022/04/24 12:19:31;;;;;;;5.27;2.80;;;18.80;64.50;;;;;;5128868;27;44012;-72
2022/04/24 12:22:07;;;;;;;3.27;2.87;;;18.80;64.60;;;;;;5121867;27;43936;-71
2022/04/24 12:24:42;;;;;;;5.27;2.73;;;18.80;64.90;;;;;;5129543;27;43854;-71
2022/04/24 12:27:13;;;;;;;3.03;2.80;;;18.90;64.80;;;;;;5129063;27;44032;-70
2022/04/24 12:29:45;;;;;;;4.80;3.10;;;19.10;64.40;;;;;;5128819;27;43868;-70
2022/04/24 12:32:14;;;;;;;3.53;3.03;;;19.30;63.70;;;;;;5128742;27;43947;-71
2022/04/24 12:34:43;;;;;;;7.93;3.10;;;19.50;63.20;;;;;;5128825;27;43902;-71
2022/04/24 12:37:13;;;;;;;3.47;3.30;;;19.60;62.80;;;;;;5127436;27;43801;-71
2022/04/24 12:39:41;;;;;;;2.80;2.70;;;19.60;62.50;;;;;;5128852;27;44080;-70
2022/04/24 12:42:17;;;;;;;6.50;3.13;;;19.50;62.70;;;;;;5126766;27;45135;-71
2022/04/24 12:44:45;;;;;;;3.20;2.87;;;19.40;63.10;;;;;;5127273;27;43895;-70
2022/04/24 12:47:13;;;;;;;3.10;2.87;;;19.20;63.40;;;;;;5128848;27;43840;-71
2022/04/24 12:49:44;;;;;;;3.17;2.90;;;19.10;63.70;;;;;;5128380;27;45124;-71
2022/04/24 12:52:13;;;;;;;3.63;3.23;;;19.00;64.10;;;;;;5126648;27;45194;-70
2022/04/24 12:54:41;;;;;;;3.60;2.90;;;19.00;64.40;;;;;;5128894;27;43879;-71
2022/04/24 12:57:10;;;;;;;3.63;2.90;;;18.90;64.50;;;;;;5128866;27;43371;-71
2022/04/24 12:59:39;;;;;;;2.80;2.70;;;18.90;64.80;;;;;;5126733;27;45640;-70
2022/04/24 13:02:07;;;;;;;3.10;3.00;;;19.10;64.60;;;;;;5125948;27;44766;-71
2022/04/24 13:04:36;;;;;;;2.87;2.77;;;19.20;64.10;;;;;;5127291;27;44137;-71
2022/04/24 13:07:04;;;;;;;2.90;2.70;;;19.30;63.60;;;;;;5129038;27;44441;-70